Terminal Aerodrome Forecast
Issued by NWS Shreveport, LA

Home | Current Version | Previous Version | Text Only | Print | Product List | Glossary On
Versions: 1 2 3 4 5 6 7 8 9 10 11 12 13
382
FTUS44 KSHV 131146
TAFMLU
TAF
KMLU 131146Z 1312/1412 06008KT P6SM SKC
     FM131500 04010KT P6SM FEW120
     FM140000 06005KT P6SM FEW050 SCT250
     FM140600 11004KT P6SM OVC050=

USA.gov is the U.S. government's official web portal to all federal, state and local government web resources and services.